Aérodrome :
LOGIN :

S'inscrire | Disclaimer

   EN    FR    IT 

 










Légende :    VFR   VFR Marginal   IFR   IFR Intensif   IFR Très Intensif
Visi : 
Plafond : 
>= 8 km
>= 3000ft
5 à 8 km
1000 à 3000 ft
1500m à 5 km
500 à 1000 ft
800 à 1500m
200 à 500 ft
< 800m
< 200 ft
Symboles :   Orages  Brouillard  Fortes neiges  Fortes précipitations  Vent > 20 kt
SIGMETs :   Divers  Orages  Givrage  Turbulence  Onde Orograph.  Cendres Volcan.






- Altitude de l'aérodrome : 86 ft
- Code IATA : HAU


ENHD - Haugesund

DERNIER METAR :
  • 022350Z AUTO 30026G39KT 5000 -RA VV017 02/00 Q0996

METARs EXPIRÉS :
  • 022320Z AUTO 30023KT 9999 FEW018/// SCT062/// 03/M01 Q0995
  • 022250Z AUTO 31022G32KT 9999 -DZ FEW009/// SCT036/// 03/M01 Q0995
  • 022220Z AUTO 31023G33KT 9999 FEW061/// 03/M01 Q0995
  • 022150Z AUTO 31027G39KT 9999 FEW017/// SCT059/// 03/M01 Q0994
  • 022120Z AUTO 31024G34KT 9999 FEW020/// SCT035/// 05/M01 Q0994

Prévision TAF périmée.



MET'MAP, la Météo Aéronautique d'un coup d'oeil ! - Copyright ORBIFLY Décembre 2007 - Disclaimer

ORBIFLY MET'MAP TEAM :

Programmation & Développement : Alexandra Zaïnal
Sur une idée originale de : Baudouin d'Aumeries
Assistance à la programmation : Marc-Olivier Méhu
Soutien technique & logistique : Manuel Goepfert

Contact : metmap@orbifly.com




SOURCES & CREDITS :

   NOAA